Terminal Aerodrome Forecast
Issued by NWS Cleveland, OH

Home | Current Version | Previous Version | Graphics & Text | Print | Product List | Glossary On
Versions: 1 2 3 4 5 6 7 8 9 10 11 12 13 14 15 16 17 18 19 20 21 22 23 24 25 26 27
000
FTUS41 KCLE 232300
TAFYNG
TAF
KYNG 232339Z 2400/2424 VRB03KT P6SM BKN150 OVC250
     FM240400 VRB03KT P6SM SCT015 OVC120
      TEMPO 2408/2412 5SM BR BKN015 OVC120
     FM242000 26009KT 6SM -DZ BR SCT007 OVC015=

USA.gov is the U.S. government's official web portal to all federal, state and local government web resources and services.